Time;durP1;ratioP1;P1;durP2;ratioP2;P2;SDS_P1;SDS_P2;PMS_P1;PMS_P2;Temp;Humidity;BMP_temperature;BMP_pressure;BME280_temperature;BME280_humidity;BME280_pressure;Samples;Min_cycle;Max_cycle;Signal;HPM_P1;HPM_P2
2020/12/18 00:03:10;;;;;;;10.97;9.83;;;7.20;99.90;;;;;;10304538;28;20590;-82
2020/12/18 00:08:12;;;;;;;10.57;9.67;;;7.20;99.90;;;;;;10303225;28;20210;-82
2020/12/18 00:13:14;;;;;;;10.07;9.00;;;7.10;99.90;;;;;;10304909;28;20257;-82
2020/12/18 00:18:15;;;;;;;10.60;9.70;;;7.00;99.90;;;;;;10304088;28;20226;-82
2020/12/18 00:23:18;;;;;;;10.10;9.20;;;6.90;99.90;;;;;;10340420;28;20215;-81
2020/12/18 00:28:20;;;;;;;10.57;9.47;;;6.90;99.90;;;;;;10342550;28;20659;-82
2020/12/18 00:33:22;;;;;;;10.20;9.30;;;6.90;99.90;;;;;;10336894;28;20598;-82
2020/12/18 00:38:25;;;;;;;10.60;9.50;;;6.80;99.90;;;;;;10304856;28;20223;-82
2020/12/18 00:43:27;;;;;;;11.67;10.47;;;6.80;99.90;;;;;;10304693;28;20482;-82
2020/12/18 00:48:29;;;;;;;11.13;10.03;;;6.80;99.90;;;;;;10306148;28;20207;-82
2020/12/18 00:53:37;;;;;;;11.27;9.80;;;6.80;99.90;;;;;;10321684;28;20222;-82
2020/12/18 00:58:43;;;;;;;11.43;10.43;;;6.80;99.90;;;;;;10322839;28;20238;-82
2020/12/18 01:03:45;;;;;;;11.50;10.40;;;6.70;99.90;;;;;;10307335;28;20218;-82
2020/12/18 01:08:49;;;;;;;11.67;10.47;;;6.70;99.90;;;;;;10332397;28;20203;-80
2020/12/18 01:13:54;;;;;;;13.23;11.83;;;6.70;99.90;;;;;;10351512;28;20598;-82
2020/12/18 01:18:57;;;;;;;13.90;12.50;;;6.60;99.90;;;;;;10302403;28;20219;-82
2020/12/18 01:24:00;;;;;;;12.03;10.83;;;6.60;99.90;;;;;;10320487;28;20750;-82
2020/12/18 01:29:02;;;;;;;11.63;10.63;;;6.60;99.90;;;;;;10325985;28;20223;-81
2020/12/18 01:34:04;;;;;;;12.70;11.40;;;6.60;99.90;;;;;;10323090;28;20242;-81
2020/12/18 01:39:07;;;;;;;14.37;11.53;;;6.60;99.90;;;;;;10328221;28;20215;-80
2020/12/18 01:44:10;;;;;;;12.13;10.93;;;6.60;99.90;;;;;;10310000;28;20326;-80
2020/12/18 01:49:15;;;;;;;10.57;9.60;;;6.70;99.90;;;;;;10309895;28;20254;-82
2020/12/18 01:54:20;;;;;;;12.07;10.97;;;6.70;99.90;;;;;;10307362;28;20553;-82
2020/12/18 01:59:22;;;;;;;11.80;10.60;;;6.80;99.90;;;;;;10312656;28;20231;-81
2020/12/18 02:04:43;;;;;;;25.30;10.37;;;6.80;99.90;;;;;;10266797;28;20223;-82
2020/12/18 02:09:47;;;;;;;10.77;9.77;;;6.90;99.90;;;;;;10334543;28;20214;-82
2020/12/18 02:14:49;;;;;;;11.40;10.30;;;6.90;99.90;;;;;;10276240;28;20231;-82
2020/12/18 02:19:53;;;;;;;11.67;10.47;;;6.90;99.90;;;;;;10287770;28;20192;-82
2020/12/18 02:25:06;;;;;;;11.93;10.83;;;6.80;99.90;;;;;;10272231;28;20227;-82
2020/12/18 02:30:10;;;;;;;11.67;10.57;;;6.80;99.90;;;;;;10311385;28;20205;-81
2020/12/18 02:35:28;;;;;;;11.80;10.70;;;6.80;99.90;;;;;;10347385;28;20229;-82
2020/12/18 02:40:30;;;;;;;11.53;10.40;;;6.80;99.90;;;;;;10363063;28;20191;-82
2020/12/18 02:45:52;;;;;;;10.43;9.53;;;6.80;99.90;;;;;;10342540;28;20253;-81
2020/12/18 02:50:58;;;;;;;10.97;9.97;;;6.70;99.90;;;;;;10324581;28;20214;-82
2020/12/18 02:56:00;;;;;;;10.87;9.87;;;6.70;99.90;;;;;;10343668;28;20249;-82
2020/12/18 03:01:16;;;;;;;10.13;9.20;;;6.70;99.90;;;;;;10327305;28;20218;-81
2020/12/18 03:06:20;;;;;;;11.60;10.50;;;6.70;99.90;;;;;;10328370;28;20216;-82
2020/12/18 03:11:26;;;;;;;10.33;9.33;;;6.70;99.90;;;;;;10342730;28;20575;-81
2020/12/18 03:16:30;;;;;;;11.20;10.13;;;6.70;99.90;;;;;;10343599;28;20230;-80
2020/12/18 03:21:50;;;;;;;10.33;9.37;;;6.70;99.90;;;;;;10358378;28;20667;-81
2020/12/18 03:27:04;;;;;;;10.93;9.60;;;6.60;99.90;;;;;;10307157;28;20226;-82
2020/12/18 03:32:13;;;;;;;9.97;9.07;;;6.70;99.90;;;;;;10279074;28;20348;-82
2020/12/18 03:37:23;;;;;;;9.83;8.93;;;6.70;99.90;;;;;;10283662;28;20318;-82
2020/12/18 03:42:25;;;;;;;10.97;9.97;;;6.80;99.90;;;;;;10277138;28;20320;-82
2020/12/18 03:47:29;;;;;;;10.23;9.20;;;6.90;99.90;;;;;;10262537;28;20222;-81
2020/12/18 03:52:43;;;;;;;10.43;9.53;;;7.00;99.90;;;;;;10276600;28;20211;-81
2020/12/18 03:57:45;;;;;;;10.10;9.10;;;7.10;99.90;;;;;;10261164;28;20298;-82
2020/12/18 04:03:10;;;;;;;10.97;9.87;;;7.10;99.90;;;;;;10274730;28;20529;-81
2020/12/18 04:08:13;;;;;;;10.43;9.43;;;7.30;99.90;;;;;;10261807;28;20204;-82
2020/12/18 04:13:34;;;;;;;10.37;9.37;;;7.30;99.90;;;;;;10291970;28;20243;-80
2020/12/18 04:18:37;;;;;;;10.30;9.30;;;7.40;99.90;;;;;;10263814;28;20713;-82
2020/12/18 04:23:43;;;;;;;10.43;9.53;;;7.50;99.90;;;;;;10260598;28;20228;-79
2020/12/18 04:29:10;;;;;;;11.50;10.40;;;7.50;99.90;;;;;;10273430;28;20531;-81
2020/12/18 04:34:14;;;;;;;10.10;9.20;;;7.60;99.90;;;;;;10276442;28;20235;-80
2020/12/18 04:39:30;;;;;;;11.43;10.20;;;7.60;99.90;;;;;;10277548;28;20227;-79
2020/12/18 04:44:33;;;;;;;11.93;10.73;;;7.60;99.90;;;;;;10265147;28;20514;-81
2020/12/18 04:49:42;;;;;;;9.37;8.47;;;7.60;99.90;;;;;;10273147;28;20225;-79
2020/12/18 04:54:58;;;;;;;11.50;10.30;;;7.60;99.90;;;;;;10258399;28;20250;-81
2020/12/18 05:00:25;;;;;;;13.53;12.17;;;7.50;99.90;;;;;;10286571;28;20220;-81
2020/12/18 05:05:47;;;;;;;11.63;10.43;;;7.50;99.90;;;;;;10273177;28;20827;-81
2020/12/18 05:10:53;;;;;;;11.33;10.13;;;7.40;99.90;;;;;;10266231;28;20267;-79
2020/12/18 05:16:04;;;;;;;11.10;10.10;;;7.40;99.90;;;;;;10281585;28;20272;-79
2020/12/18 05:21:24;;;;;;;12.93;11.73;;;7.30;99.90;;;;;;10281268;28;20191;-80
2020/12/18 05:26:30;;;;;;;14.40;12.20;;;7.30;99.90;;;;;;10288339;28;20218;-81
2020/12/18 05:31:35;;;;;;;12.20;11.10;;;7.30;99.90;;;;;;10300611;28;20204;-80
2020/12/18 05:37:00;;;;;;;12.43;11.33;;;7.30;99.90;;;;;;10327489;28;20222;-81
2020/12/18 05:42:21;;;;;;;11.63;10.43;;;7.30;99.90;;;;;;10324019;28;20211;-79
2020/12/18 05:47:25;;;;;;;12.87;11.57;;;7.30;99.90;;;;;;10336147;28;20269;-80
2020/12/18 05:52:30;;;;;;;12.53;10.90;;;7.40;99.90;;;;;;10304765;28;20620;-80
2020/12/18 05:57:49;;;;;;;14.17;12.77;;;7.50;99.90;;;;;;10337590;28;20749;-80
2020/12/18 06:02:57;;;;;;;14.20;12.70;;;7.50;99.90;;;;;;10318099;28;20211;-78
2020/12/18 06:08:15;;;;;;;14.23;12.73;;;7.50;99.90;;;;;;10307142;28;20201;-80
2020/12/18 06:13:18;;;;;;;13.80;12.50;;;7.40;99.90;;;;;;10324730;28;20682;-79
2020/12/18 06:18:43;;;;;;;13.83;12.43;;;7.30;99.90;;;;;;10305675;28;20222;-79
2020/12/18 06:23:48;;;;;;;12.70;11.50;;;7.30;99.90;;;;;;10323692;28;20216;-79
2020/12/18 06:29:22;;;;;;;11.70;10.57;;;7.20;99.90;;;;;;10324664;28;20219;-80
2020/12/18 06:34:42;;;;;;;13.43;12.10;;;7.10;99.90;;;;;;10325647;28;20274;-79
2020/12/18 06:40:00;;;;;;;12.90;11.70;;;7.10;99.90;;;;;;10271278;28;20673;-81
2020/12/18 06:45:28;;;;;;;12.57;11.27;;;7.10;99.90;;;;;;10264105;28;20219;-78
2020/12/18 06:50:36;;;;;;;11.40;10.33;;;7.10;99.90;;;;;;10283660;28;20708;-79
2020/12/18 06:56:07;;;;;;;12.17;10.97;;;7.20;99.90;;;;;;10290456;28;20224;-80
2020/12/18 07:01:30;;;;;;;12.80;11.50;;;7.20;99.90;;;;;;10285065;28;20211;-79
2020/12/18 07:06:33;;;;;;;13.40;12.10;;;7.40;99.90;;;;;;10323036;28;20211;-79
2020/12/18 07:11:37;;;;;;;13.83;12.43;;;7.40;99.90;;;;;;10324766;28;20275;-79
2020/12/18 07:16:40;;;;;;;13.00;11.80;;;7.50;99.90;;;;;;10323539;28;20665;-80
2020/12/18 07:21:41;;;;;;;12.97;11.67;;;7.50;99.90;;;;;;10315889;28;20743;-79
2020/12/18 07:26:44;;;;;;;14.27;12.90;;;7.60;99.90;;;;;;10343984;28;20298;-80
2020/12/18 07:31:46;;;;;;;14.00;12.70;;;7.70;99.90;;;;;;10344411;28;20197;-79
2020/12/18 07:36:48;;;;;;;11.93;10.80;;;7.70;99.90;;;;;;10305108;28;20536;-79
2020/12/18 07:42:10;;;;;;;12.53;11.23;;;7.70;99.90;;;;;;10286625;28;20211;-79
2020/12/18 07:47:21;;;;;;;11.83;10.63;;;7.70;99.90;;;;;;10288056;28;20239;-80
2020/12/18 07:52:27;;;;;;;11.10;10.00;;;7.70;99.90;;;;;;10287191;28;20203;-79
2020/12/18 07:57:46;;;;;;;12.93;11.73;;;7.70;99.90;;;;;;10294358;28;20317;-83
2020/12/18 08:02:51;;;;;;;11.27;10.17;;;7.80;99.90;;;;;;10370382;28;20202;-81
2020/12/18 08:07:58;;;;;;;11.50;10.60;;;7.80;99.90;;;;;;10283950;28;20274;-80
2020/12/18 08:13:01;;;;;;;11.60;10.50;;;7.90;99.90;;;;;;10297800;28;20199;-79
2020/12/18 08:18:02;;;;;;;11.70;10.60;;;8.00;99.90;;;;;;10321584;28;20310;-80
2020/12/18 08:23:04;;;;;;;11.70;10.60;;;8.10;99.90;;;;;;10332553;28;20195;-81
2020/12/18 08:28:21;;;;;;;11.00;9.90;;;8.20;99.90;;;;;;10301482;28;20254;-81
2020/12/18 08:33:30;;;;;;;10.80;9.80;;;8.20;99.90;;;;;;10298553;28;20218;-80
2020/12/18 08:38:32;;;;;;;11.47;10.47;;;8.40;99.90;;;;;;10294537;28;20223;-81
2020/12/18 08:43:34;;;;;;;10.43;9.43;;;8.50;99.90;;;;;;10329570;28;20277;-81
2020/12/18 08:48:36;;;;;;;11.60;10.40;;;8.60;99.90;;;;;;10322858;28;20210;-81
2020/12/18 08:53:38;;;;;;;11.43;10.33;;;8.70;99.90;;;;;;10351063;28;20577;-81
2020/12/18 08:58:40;;;;;;;10.93;9.93;;;8.80;99.90;;;;;;10330019;28;20603;-80
2020/12/18 09:03:42;;;;;;;13.20;11.90;;;8.90;99.90;;;;;;10307123;28;20276;-79
2020/12/18 09:08:43;;;;;;;14.40;12.90;;;9.00;99.90;;;;;;10336806;28;20250;-80
2020/12/18 09:13:47;;;;;;;17.10;13.33;;;9.10;99.90;;;;;;10319117;28;20222;-80
2020/12/18 09:18:52;;;;;;;15.37;13.50;;;9.30;99.90;;;;;;10316973;28;20226;-81
2020/12/18 09:23:53;;;;;;;17.70;14.03;;;9.40;99.90;;;;;;10318163;28;20653;-80
2020/12/18 09:28:56;;;;;;;18.40;14.67;;;9.50;99.90;;;;;;10307426;28;20195;-80
2020/12/18 09:34:11;;;;;;;17.00;12.53;;;9.50;99.90;;;;;;10314319;28;20218;-81
2020/12/18 09:39:13;;;;;;;15.03;13.53;;;9.40;99.90;;;;;;10334279;28;20277;-80
2020/12/18 09:44:16;;;;;;;18.40;15.00;;;9.30;99.90;;;;;;10320995;28;20249;-81
2020/12/18 09:49:17;;;;;;;19.60;15.10;;;9.20;99.90;;;;;;10349398;28;20199;-80
2020/12/18 09:54:19;;;;;;;21.30;13.97;;;9.10;99.90;;;;;;10342039;28;20276;-80
2020/12/18 09:59:21;;;;;;;15.97;12.30;;;9.10;99.90;;;;;;10330517;28;20678;-81
2020/12/18 10:04:23;;;;;;;13.93;12.00;;;9.10;99.90;;;;;;10320734;28;20663;-79
2020/12/18 10:09:28;;;;;;;12.70;11.50;;;9.10;99.90;;;;;;10344852;28;20225;-81
2020/12/18 10:14:31;;;;;;;13.60;12.17;;;9.10;99.90;;;;;;10339273;28;20612;-80
2020/12/18 10:19:34;;;;;;;13.53;11.80;;;9.10;99.90;;;;;;10372433;23;20839;-81
2020/12/18 10:24:35;;;;;;;14.57;13.10;;;9.10;99.90;;;;;;10271892;28;20223;-81
2020/12/18 10:29:38;;;;;;;16.10;14.40;;;9.10;99.90;;;;;;10244592;29;20231;-81
2020/12/18 10:34:40;;;;;;;14.40;12.87;;;9.10;99.90;;;;;;10250235;28;20271;-81
2020/12/18 10:39:42;;;;;;;15.20;13.80;;;9.10;99.90;;;;;;10303446;28;20267;-81
2020/12/18 10:44:44;;;;;;;16.47;14.97;;;9.10;99.90;;;;;;10319716;28;20294;-79
2020/12/18 10:49:46;;;;;;;17.83;13.70;;;9.10;99.90;;;;;;10287328;28;20230;-81
2020/12/18 10:54:48;;;;;;;15.13;13.67;;;9.10;99.90;;;;;;10279362;28;20262;-81
2020/12/18 10:59:50;;;;;;;15.23;13.73;;;9.10;99.90;;;;;;10257831;28;20238;-81
2020/12/18 11:04:52;;;;;;;16.37;14.70;;;9.20;99.90;;;;;;10253760;28;20208;-81
2020/12/18 11:09:53;;;;;;;16.07;14.37;;;9.20;99.90;;;;;;10262111;28;20220;-79
2020/12/18 11:14:56;;;;;;;16.33;14.67;;;9.20;99.90;;;;;;10279078;28;20656;-81
2020/12/18 11:19:57;;;;;;;15.33;13.73;;;9.30;99.90;;;;;;10250078;29;20260;-80
2020/12/18 11:25:00;;;;;;;15.40;13.90;;;9.30;99.90;;;;;;10260558;28;20240;-80
2020/12/18 11:30:04;;;;;;;15.30;13.80;;;9.30;99.90;;;;;;10277425;28;20278;-80
2020/12/18 11:35:05;;;;;;;15.50;14.00;;;9.30;99.90;;;;;;10288661;28;20208;-80
2020/12/18 11:40:07;;;;;;;15.53;13.90;;;9.40;99.90;;;;;;10257540;28;20306;-80
2020/12/18 11:45:09;;;;;;;17.03;14.70;;;9.40;99.90;;;;;;10281707;28;20274;-80
2020/12/18 11:50:12;;;;;;;16.13;14.60;;;9.40;99.90;;;;;;10295317;28;20239;-80
2020/12/18 11:55:14;;;;;;;15.10;13.70;;;9.40;99.90;;;;;;10251282;28;20212;-80
2020/12/18 12:00:19;;;;;;;15.73;13.93;;;9.50;99.90;;;;;;10265128;28;20231;-80
2020/12/18 12:05:23;;;;;;;16.93;15.23;;;9.50;99.90;;;;;;10244938;28;20805;-80
2020/12/18 12:10:25;;;;;;;17.47;14.20;;;9.50;99.90;;;;;;10282338;28;20240;-80
2020/12/18 12:15:27;;;;;;;15.80;14.17;;;9.60;99.90;;;;;;10282115;28;20203;-80
2020/12/18 12:20:29;;;;;;;14.47;12.97;;;9.70;99.90;;;;;;10312811;28;20777;-80
2020/12/18 12:25:31;;;;;;;16.07;14.37;;;9.70;99.90;;;;;;10288233;28;20204;-80
2020/12/18 12:30:33;;;;;;;14.50;13.10;;;9.80;99.90;;;;;;10294455;28;20215;-80
2020/12/18 12:35:35;;;;;;;19.33;17.23;;;9.80;99.90;;;;;;10288743;28;20221;-80
2020/12/18 12:40:37;;;;;;;17.33;15.60;;;9.90;99.90;;;;;;10282209;28;20212;-80
2020/12/18 12:45:40;;;;;;;16.80;14.33;;;9.90;99.90;;;;;;10280500;28;20211;-80
2020/12/18 12:50:42;;;;;;;12.47;11.17;;;9.90;99.90;;;;;;10266873;28;20215;-80
2020/12/18 12:55:46;;;;;;;12.00;10.80;;;9.90;99.90;;;;;;10265494;28;20195;-80
2020/12/18 13:00:49;;;;;;;12.63;11.43;;;9.90;99.90;;;;;;10265214;28;20350;-80
2020/12/18 13:05:51;;;;;;;10.77;9.67;;;10.00;99.90;;;;;;10270095;28;20235;-80
2020/12/18 13:10:54;;;;;;;9.23;8.53;;;10.00;99.90;;;;;;10277874;28;20696;-80
2020/12/18 13:15:56;;;;;;;9.30;7.53;;;10.00;99.90;;;;;;10307731;28;20236;-80
2020/12/18 13:20:58;;;;;;;7.70;7.00;;;10.00;99.90;;;;;;10260216;28;20228;-80
2020/12/18 13:25:59;;;;;;;8.60;7.50;;;10.00;99.90;;;;;;10223274;28;20200;-80
2020/12/18 13:31:02;;;;;;;7.07;6.40;;;10.00;99.90;;;;;;10247701;29;20300;-80
2020/12/18 13:36:04;;;;;;;6.80;6.10;;;10.00;99.90;;;;;;10275515;28;20332;-80
2020/12/18 13:41:05;;;;;;;6.80;6.20;;;10.10;99.90;;;;;;10274939;28;20267;-80
2020/12/18 13:46:08;;;;;;;5.53;5.03;;;10.10;99.90;;;;;;10265751;28;20199;-80
2020/12/18 13:51:10;;;;;;;6.30;5.80;;;10.00;99.90;;;;;;10300204;28;20228;-80
2020/12/18 13:56:12;;;;;;;6.33;5.73;;;10.00;99.90;;;;;;10287313;28;20207;-80
2020/12/18 14:01:15;;;;;;;6.17;5.63;;;10.00;99.90;;;;;;10296773;28;20239;-80
2020/12/18 14:06:18;;;;;;;7.20;6.50;;;9.90;99.90;;;;;;10267539;28;20234;-80
2020/12/18 14:11:20;;;;;;;7.03;6.33;;;9.90;99.90;;;;;;10303608;28;20580;-80
2020/12/18 14:16:22;;;;;;;8.03;7.30;;;9.80;99.90;;;;;;10309386;28;20294;-80
2020/12/18 14:21:24;;;;;;;11.50;7.83;;;9.70;99.90;;;;;;10287219;28;20306;-80
2020/12/18 14:26:26;;;;;;;9.63;7.10;;;9.70;99.90;;;;;;10286436;28;20199;-80
2020/12/18 14:31:28;;;;;;;8.87;7.97;;;9.60;99.90;;;;;;10306393;28;20207;-80
2020/12/18 14:36:30;;;;;;;9.27;8.33;;;9.60;99.90;;;;;;10272860;28;20250;-80
2020/12/18 14:41:32;;;;;;;8.50;7.80;;;9.50;99.90;;;;;;10287694;28;20216;-80
2020/12/18 14:46:35;;;;;;;8.50;7.70;;;9.50;99.90;;;;;;10289254;28;20192;-80
2020/12/18 14:51:37;;;;;;;10.47;9.23;;;9.50;99.90;;;;;;10306875;28;20216;-80
2020/12/18 14:56:39;;;;;;;8.97;8.17;;;9.50;99.90;;;;;;10307517;28;20578;-80
2020/12/18 15:01:42;;;;;;;9.23;8.43;;;9.40;99.90;;;;;;10307120;28;20377;-79
2020/12/18 15:06:46;;;;;;;10.00;9.00;;;9.40;99.90;;;;;;10316286;28;20230;-81
2020/12/18 15:11:47;;;;;;;10.00;9.00;;;9.40;99.90;;;;;;10282779;28;20266;-81
2020/12/18 15:16:50;;;;;;;11.60;10.40;;;9.30;99.90;;;;;;10276808;28;20224;-82
2020/12/18 15:21:52;;;;;;;9.77;8.87;;;9.30;99.90;;;;;;10271735;28;20232;-81
2020/12/18 15:26:53;;;;;;;11.83;10.73;;;9.30;99.90;;;;;;10268513;28;20200;-81
2020/12/18 15:31:56;;;;;;;12.57;11.30;;;9.30;99.90;;;;;;10243664;28;20693;-81
2020/12/18 15:36:58;;;;;;;12.37;11.03;;;9.30;99.90;;;;;;10277030;28;20222;-81
2020/12/18 15:42:00;;;;;;;12.47;11.27;;;9.20;99.90;;;;;;10276931;28;20245;-81
2020/12/18 15:47:02;;;;;;;13.10;11.73;;;9.20;99.90;;;;;;10296761;28;20694;-82
2020/12/18 15:52:04;;;;;;;12.50;11.20;;;9.20;99.90;;;;;;10313027;28;20231;-81
2020/12/18 15:57:06;;;;;;;12.97;11.67;;;9.10;99.90;;;;;;10286575;28;20247;-81
2020/12/18 16:02:09;;;;;;;14.13;12.73;;;9.10;99.90;;;;;;10310154;28;20234;-81
2020/12/18 16:07:11;;;;;;;15.90;12.50;;;9.00;99.90;;;;;;10274495;28;20200;-80
2020/12/18 16:12:13;;;;;;;13.80;12.47;;;9.00;99.90;;;;;;10271179;28;20717;-81
2020/12/18 16:17:15;;;;;;;13.20;11.87;;;9.00;99.90;;;;;;10327069;28;20227;-81
2020/12/18 16:22:17;;;;;;;15.80;13.17;;;9.00;99.90;;;;;;10317943;23;20724;-79
2020/12/18 16:27:18;;;;;;;14.00;12.50;;;8.90;99.90;;;;;;10242906;28;20241;-79
2020/12/18 16:32:21;;;;;;;13.70;12.30;;;8.80;99.90;;;;;;10293688;28;20227;-79
2020/12/18 16:37:23;;;;;;;12.70;11.40;;;8.80;99.90;;;;;;10306838;28;20224;-79
2020/12/18 16:42:24;;;;;;;13.00;11.80;;;8.70;99.90;;;;;;10304985;28;20301;-80
2020/12/18 16:47:27;;;;;;;11.97;10.80;;;8.70;99.90;;;;;;10301450;28;20577;-79
2020/12/18 16:52:32;;;;;;;12.60;11.50;;;8.60;99.90;;;;;;10294758;28;20306;-79
2020/12/18 16:57:34;;;;;;;10.90;9.80;;;8.70;99.90;;;;;;10312323;28;20618;-80
2020/12/18 17:02:36;;;;;;;11.80;10.70;;;8.70;99.90;;;;;;10312278;28;20246;-79
2020/12/18 17:07:41;;;;;;;13.80;12.40;;;8.70;99.90;;;;;;10307637;28;20699;-79
2020/12/18 17:12:43;;;;;;;10.83;9.73;;;8.70;99.90;;;;;;10282627;28;20509;-79
2020/12/18 17:17:45;;;;;;;12.87;10.80;;;8.60;99.90;;;;;;10282364;28;20736;-79
2020/12/18 17:22:47;;;;;;;9.30;8.50;;;8.60;99.90;;;;;;10282246;28;20330;-79
2020/12/18 17:27:48;;;;;;;12.00;10.80;;;8.50;99.90;;;;;;10286423;28;20304;-79
2020/12/18 17:32:51;;;;;;;14.70;13.00;;;8.50;99.90;;;;;;10331139;28;20246;-80
2020/12/18 17:37:53;;;;;;;14.53;13.00;;;8.40;99.90;;;;;;10287951;28;20266;-80
2020/12/18 17:42:54;;;;;;;13.23;11.77;;;8.40;99.90;;;;;;10286193;28;20677;-80
2020/12/18 17:47:58;;;;;;;12.50;11.40;;;8.30;99.90;;;;;;10294119;28;20206;-80
2020/12/18 17:53:00;;;;;;;14.77;12.50;;;8.30;99.90;;;;;;10270589;28;20233;-79
2020/12/18 17:58:01;;;;;;;14.20;12.87;;;8.30;99.90;;;;;;10303805;28;20216;-79
2020/12/18 18:03:04;;;;;;;16.30;14.70;;;8.20;99.90;;;;;;10289805;28;20298;-79
2020/12/18 18:08:05;;;;;;;23.97;19.50;;;8.20;99.90;;;;;;10311010;28;20212;-79
2020/12/18 18:13:08;;;;;;;31.67;20.23;;;8.10;99.90;;;;;;10259762;28;20226;-79
2020/12/18 18:18:11;;;;;;;23.20;17.10;;;8.00;99.90;;;;;;10276933;28;20695;-79
2020/12/18 18:23:13;;;;;;;18.97;15.40;;;8.00;99.90;;;;;;10310119;28;20237;-80
2020/12/18 18:28:14;;;;;;;15.83;14.10;;;8.00;99.90;;;;;;10298094;28;20196;-79
2020/12/18 18:33:17;;;;;;;14.57;13.23;;;8.10;99.90;;;;;;10269630;28;20313;-79
2020/12/18 18:38:19;;;;;;;13.40;12.03;;;8.10;99.90;;;;;;10295762;28;20294;-80
2020/12/18 18:43:20;;;;;;;12.53;11.33;;;8.10;99.90;;;;;;10263139;28;20224;-80
2020/12/18 18:48:23;;;;;;;12.60;11.30;;;8.10;99.90;;;;;;10290194;28;20196;-80
2020/12/18 18:53:27;;;;;;;17.20;13.20;;;8.10;99.90;;;;;;10290031;28;20277;-80
2020/12/18 18:58:30;;;;;;;14.50;13.00;;;8.00;99.90;;;;;;10310956;28;20670;-82
2020/12/18 19:03:33;;;;;;;17.83;14.50;;;8.10;99.90;;;;;;10329737;28;20238;-81
2020/12/18 19:08:35;;;;;;;20.50;14.50;;;8.10;99.90;;;;;;10303925;28;20253;-82
2020/12/18 19:13:37;;;;;;;15.90;13.03;;;8.10;99.90;;;;;;10348650;28;20199;-79
2020/12/18 19:18:39;;;;;;;14.17;12.40;;;8.10;99.90;;;;;;10322734;28;20281;-82
2020/12/18 19:23:41;;;;;;;9.87;8.87;;;8.20;99.90;;;;;;10335164;28;20758;-82
2020/12/18 19:28:43;;;;;;;10.63;9.63;;;8.30;99.90;;;;;;10281167;28;20211;-80
2020/12/18 19:33:45;;;;;;;9.93;8.93;;;8.40;99.90;;;;;;10306303;28;20706;-82
2020/12/18 19:38:47;;;;;;;8.80;8.00;;;8.50;99.90;;;;;;10283883;28;20250;-80
2020/12/18 19:43:49;;;;;;;7.73;7.13;;;8.50;99.90;;;;;;10297131;28;20651;-79
2020/12/18 19:48:52;;;;;;;8.17;7.37;;;8.50;99.90;;;;;;10301882;28;20207;-79
2020/12/18 19:53:55;;;;;;;8.03;7.23;;;8.60;99.90;;;;;;10299671;28;20251;-80
2020/12/18 19:58:56;;;;;;;8.53;7.03;;;8.60;99.90;;;;;;10308090;28;20227;-80
2020/12/18 20:03:59;;;;;;;7.50;6.80;;;8.60;99.90;;;;;;10298909;28;20294;-79
2020/12/18 20:09:02;;;;;;;8.90;8.10;;;8.60;99.90;;;;;;10321287;28;20199;-81
2020/12/18 20:14:04;;;;;;;9.20;8.40;;;8.50;99.90;;;;;;10295921;28;20227;-79
2020/12/18 20:19:07;;;;;;;10.47;9.50;;;8.40;99.90;;;;;;10267562;28;20338;-78
2020/12/18 20:24:08;;;;;;;10.23;9.40;;;8.30;99.90;;;;;;10292438;28;20238;-80
2020/12/18 20:29:10;;;;;;;11.80;10.70;;;8.30;99.90;;;;;;10312003;28;20282;-79
2020/12/18 20:34:12;;;;;;;10.57;9.57;;;8.20;99.90;;;;;;10327857;28;20258;-79
2020/12/18 20:39:14;;;;;;;9.50;7.87;;;8.00;99.90;;;;;;10321959;28;20238;-78
2020/12/18 20:44:17;;;;;;;9.40;8.50;;;7.90;99.90;;;;;;10299573;28;20223;-82
2020/12/18 20:49:20;;;;;;;11.07;9.80;;;7.80;99.90;;;;;;10265524;28;20224;-78
2020/12/18 20:54:21;;;;;;;9.40;8.37;;;7.70;99.90;;;;;;10276271;28;20730;-80
2020/12/18 20:59:23;;;;;;;11.70;10.23;;;7.60;99.90;;;;;;10302729;28;20223;-79
2020/12/18 21:04:27;;;;;;;10.97;9.83;;;7.50;99.90;;;;;;10296870;28;20770;-78
2020/12/18 21:09:29;;;;;;;9.23;8.30;;;7.40;99.90;;;;;;10286214;28;20235;-79
2020/12/18 21:14:30;;;;;;;9.67;8.40;;;7.40;99.90;;;;;;10289837;28;20219;-78
2020/12/18 21:19:33;;;;;;;9.63;8.67;;;7.30;99.90;;;;;;10278720;28;20228;-80
2020/12/18 21:24:34;;;;;;;10.20;9.30;;;7.30;99.90;;;;;;10266775;28;20295;-79
2020/12/18 21:29:36;;;;;;;10.47;9.50;;;7.30;99.90;;;;;;10274307;28;20216;-80
2020/12/18 21:34:39;;;;;;;10.70;9.60;;;7.30;99.90;;;;;;10286091;28;20196;-80
2020/12/18 21:39:41;;;;;;;10.20;9.30;;;7.30;99.90;;;;;;10282079;28;20223;-80
2020/12/18 21:44:42;;;;;;;8.60;7.80;;;7.30;99.90;;;;;;10276727;28;20602;-78
2020/12/18 21:49:45;;;;;;;9.60;8.40;;;7.20;99.90;;;;;;10259723;28;20266;-77
2020/12/18 21:54:46;;;;;;;8.97;8.20;;;7.10;99.90;;;;;;10302088;28;20723;-80
2020/12/18 21:59:48;;;;;;;11.33;10.17;;;7.10;99.90;;;;;;10331567;28;20225;-85
2020/12/18 22:04:51;;;;;;;8.60;7.87;;;7.00;99.90;;;;;;10296745;28;20694;-82
2020/12/18 22:09:52;;;;;;;10.03;9.07;;;6.90;99.90;;;;;;10284478;28;20216;-84
2020/12/18 22:14:54;;;;;;;9.77;8.77;;;6.90;99.90;;;;;;10289221;28;20219;-83
2020/12/18 22:19:57;;;;;;;8.70;7.90;;;6.90;99.90;;;;;;10323661;28;20254;-79
2020/12/18 22:24:58;;;;;;;10.20;9.17;;;6.90;99.90;;;;;;10317197;28;20199;-80
2020/12/18 22:30:00;;;;;;;9.50;8.60;;;6.90;99.90;;;;;;10314974;28;20232;-79
2020/12/18 22:35:02;;;;;;;9.47;8.63;;;7.00;99.90;;;;;;10305824;28;20219;-80
2020/12/18 22:40:04;;;;;;;8.93;8.13;;;7.10;99.90;;;;;;10304212;28;20230;-79
2020/12/18 22:45:06;;;;;;;10.00;9.00;;;7.20;99.90;;;;;;10313579;28;20196;-80
2020/12/18 22:50:09;;;;;;;10.13;9.13;;;7.20;99.90;;;;;;10300601;28;20756;-80
2020/12/18 22:55:11;;;;;;;11.23;10.13;;;7.30;99.90;;;;;;10305822;28;20215;-79
2020/12/18 23:00:15;;;;;;;9.27;8.43;;;7.30;99.90;;;;;;10303680;28;20227;-79
2020/12/18 23:05:17;;;;;;;9.87;8.97;;;7.30;99.90;;;;;;10291423;28;20200;-79
2020/12/18 23:10:19;;;;;;;9.47;8.57;;;7.30;99.90;;;;;;10301886;28;20216;-80
2020/12/18 23:15:21;;;;;;;8.93;8.07;;;7.30;99.90;;;;;;10304856;28;20210;-80
2020/12/18 23:20:23;;;;;;;9.33;8.43;;;7.20;99.90;;;;;;10295429;28;20229;-79
2020/12/18 23:25:25;;;;;;;8.47;7.67;;;7.10;99.90;;;;;;10310584;28;20360;-80
2020/12/18 23:30:27;;;;;;;9.50;8.60;;;7.10;99.90;;;;;;10307070;28;20226;-80
2020/12/18 23:35:29;;;;;;;8.67;7.87;;;7.10;99.90;;;;;;10311545;28;20223;-79
2020/12/18 23:40:31;;;;;;;7.30;6.63;;;7.10;99.90;;;;;;10300264;28;20233;-79
2020/12/18 23:45:35;;;;;;;8.70;7.90;;;7.00;99.90;;;;;;10287746;28;20302;-79
2020/12/18 23:50:37;;;;;;;7.93;7.17;;;7.00;99.90;;;;;;10311913;28;20704;-79
2020/12/18 23:55:39;;;;;;;8.57;7.70;;;6.90;99.90;;;;;;10315270;28;20207;-79
